Time;durP1;ratioP1;P1;durP2;ratioP2;P2;SDS_P1;SDS_P2;PMS_P1;PMS_P2;Temp;Humidity;BMP_temperature;BMP_pressure;BME280_temperature;BME280_humidity;BME280_pressure;Samples;Min_cycle;Max_cycle;Signal;HPM_P1;HPM_P2
2022/07/29 00:00:48;;;;;;;6.38;1.33;;;19.60;78.90;;;;;;5052069;28;20056;-61
2022/07/29 00:03:14;;;;;;;1.55;1.10;;;19.60;79.10;;;;;;5053662;28;20025;-61
2022/07/29 00:05:40;;;;;;;3.17;1.10;;;19.50;79.20;;;;;;5052648;28;20029;-61
2022/07/29 00:08:07;;;;;;;5.07;1.35;;;19.50;79.40;;;;;;5051238;28;20027;-61
2022/07/29 00:10:33;;;;;;;3.22;1.10;;;19.50;79.50;;;;;;5052736;28;20394;-61
2022/07/29 00:12:58;;;;;;;2.97;1.27;;;19.50;79.60;;;;;;5063997;28;20032;-61
2022/07/29 00:15:24;;;;;;;3.70;1.27;;;19.50;79.80;;;;;;5051463;28;20453;-61
2022/07/29 00:17:50;;;;;;;4.57;1.10;;;19.50;79.90;;;;;;5051820;28;20557;-61
2022/07/29 00:20:16;;;;;;;4.07;1.23;;;19.50;80.00;;;;;;5051661;28;20400;-61
2022/07/29 00:22:41;;;;;;;3.67;1.10;;;19.50;80.10;;;;;;5051727;28;20033;-62
2022/07/29 00:25:08;;;;;;;4.65;1.48;;;19.50;80.20;;;;;;5052985;28;20033;-61
2022/07/29 00:27:34;;;;;;;3.92;1.20;;;19.40;80.20;;;;;;5050649;28;20338;-61
2022/07/29 00:30:04;;;;;;;3.40;1.20;;;19.50;80.40;;;;;;5052078;28;20186;-61
2022/07/29 00:32:29;;;;;;;3.13;1.40;;;19.50;80.40;;;;;;5049059;28;20056;-61
2022/07/29 00:37:39;;;;;;;3.25;1.75;;;19.50;81.10;;;;;;5052270;28;20053;-62
2022/07/29 00:40:06;;;;;;;4.20;1.20;;;19.50;80.50;;;;;;5051933;28;20068;-61
2022/07/29 00:42:45;;;;;;;3.47;1.30;;;19.40;80.50;;;;;;5067841;28;20085;-62
2022/07/29 00:45:15;;;;;;;5.32;1.40;;;19.40;80.50;;;;;;5058155;28;20037;-61
2022/07/29 00:47:41;;;;;;;2.03;1.30;;;19.40;80.50;;;;;;5052589;28;20064;-61
2022/07/29 00:50:08;;;;;;;4.28;1.20;;;19.40;80.60;;;;;;5050065;28;20040;-62
2022/07/29 00:52:39;;;;;;;3.83;1.30;;;19.40;80.70;;;;;;5070029;28;20396;-61
2022/07/29 00:55:08;;;;;;;4.13;1.55;;;19.40;80.70;;;;;;5057894;28;20493;-61
2022/07/29 00:57:34;;;;;;;3.20;1.40;;;19.40;80.70;;;;;;5033582;28;20065;-61
2022/07/29 01:00:00;;;;;;;2.47;1.20;;;19.40;80.70;;;;;;5058442;28;20037;-61
2022/07/29 01:02:26;;;;;;;2.88;1.20;;;19.40;80.60;;;;;;5050802;28;20385;-61
2022/07/29 01:04:53;;;;;;;5.57;1.27;;;19.40;80.70;;;;;;5050714;28;20404;-61
2022/07/29 01:07:19;;;;;;;1.73;1.08;;;19.40;80.70;;;;;;5052042;28;20078;-61
2022/07/29 01:09:46;;;;;;;4.97;1.30;;;19.40;80.70;;;;;;5049993;28;20702;-61
2022/07/29 01:12:16;;;;;;;3.63;1.40;;;19.40;80.70;;;;;;5063449;28;20495;-61
2022/07/29 01:14:47;;;;;;;5.65;1.38;;;19.40;80.80;;;;;;5051165;28;20037;-61
2022/07/29 01:17:25;;;;;;;4.78;1.50;;;19.40;80.80;;;;;;5051373;28;20032;-61
2022/07/29 01:19:53;;;;;;;2.92;1.20;;;19.30;80.70;;;;;;5054653;28;20473;-61
2022/07/29 01:22:34;;;;;;;5.28;1.67;;;19.30;80.70;;;;;;5059213;28;20025;-61
2022/07/29 01:25:32;;;;;;;6.03;1.45;;;19.30;80.70;;;;;;5050621;28;20082;-61
2022/07/29 01:28:08;;;;;;;2.63;1.30;;;19.40;80.80;;;;;;5062071;28;20028;-61
2022/07/29 01:30:37;;;;;;;3.78;1.30;;;19.30;80.80;;;;;;5048901;28;20063;-62
2022/07/29 01:33:09;;;;;;;3.47;1.20;;;19.30;80.80;;;;;;5051380;28;20044;-61
2022/07/29 01:35:45;;;;;;;5.20;1.35;;;19.30;80.90;;;;;;5051540;28;20021;-61
2022/07/29 01:38:20;;;;;;;3.85;1.48;;;19.30;81.00;;;;;;5060388;28;20444;-62
2022/07/29 01:40:58;;;;;;;10.45;1.40;;;19.20;81.00;;;;;;5050983;28;20041;-61
2022/07/29 01:43:34;;;;;;;3.58;1.13;;;19.20;81.00;;;;;;5050976;28;20091;-61
2022/07/29 01:46:15;;;;;;;4.38;1.25;;;19.20;81.10;;;;;;5061192;28;20037;-61
2022/07/29 01:48:51;;;;;;;2.72;1.23;;;19.20;81.00;;;;;;5061296;28;20021;-61
2022/07/29 01:51:27;;;;;;;3.30;1.30;;;19.10;81.00;;;;;;5051465;28;20071;-61
2022/07/29 01:54:01;;;;;;;3.78;1.40;;;19.20;81.10;;;;;;5050235;28;20124;-61
2022/07/29 01:56:32;;;;;;;1.50;1.15;;;19.20;81.20;;;;;;5061654;28;20071;-61
2022/07/29 01:58:59;;;;;;;3.33;1.30;;;19.10;81.20;;;;;;5039909;28;20041;-61
2022/07/29 02:01:27;;;;;;;4.55;1.50;;;19.10;81.30;;;;;;5051579;28;20037;-61
2022/07/29 02:03:54;;;;;;;2.78;1.00;;;19.10;81.40;;;;;;5050402;28;20424;-61
2022/07/29 02:06:22;;;;;;;2.25;1.17;;;19.10;81.50;;;;;;5050743;28;20048;-61
2022/07/29 02:08:49;;;;;;;6.80;1.40;;;19.10;81.60;;;;;;5050510;28;20037;-61
2022/07/29 02:11:16;;;;;;;3.45;1.30;;;19.10;81.60;;;;;;5050133;28;20029;-61
2022/07/29 02:13:43;;;;;;;2.92;1.52;;;19.10;81.70;;;;;;5038281;28;20115;-61
2022/07/29 02:16:10;;;;;;;5.07;1.50;;;19.10;81.80;;;;;;5042046;28;20037;-61
2022/07/29 02:18:38;;;;;;;8.70;1.50;;;19.10;81.80;;;;;;5043151;28;20112;-61
2022/07/29 02:21:05;;;;;;;6.32;1.50;;;19.00;81.80;;;;;;5052799;28;20037;-61
2022/07/29 02:23:32;;;;;;;3.42;1.40;;;19.10;81.90;;;;;;5054055;28;20033;-61
2022/07/29 02:25:59;;;;;;;3.75;1.38;;;19.00;81.80;;;;;;5048261;28;20468;-61
2022/07/29 02:28:29;;;;;;;3.30;1.27;;;19.00;81.90;;;;;;5052517;28;20601;-61
2022/07/29 02:31:01;;;;;;;4.88;1.40;;;19.00;82.00;;;;;;5048848;28;20025;-61
2022/07/29 02:33:30;;;;;;;3.25;1.13;;;19.00;81.90;;;;;;5053912;28;20407;-61
2022/07/29 02:35:58;;;;;;;5.28;1.48;;;19.00;82.00;;;;;;5052966;28;20029;-61
2022/07/29 02:41:13;;;;;;;2.55;1.38;;;19.00;82.00;;;;;;5040107;28;20037;-61
2022/07/29 02:43:40;;;;;;;9.65;1.52;;;19.00;82.00;;;;;;5052789;28;20071;-61
2022/07/29 02:46:11;;;;;;;5.50;1.40;;;19.00;82.10;;;;;;5055283;28;20099;-61
2022/07/29 02:48:41;;;;;;;3.75;1.38;;;18.90;82.10;;;;;;5052956;28;20029;-61
2022/07/29 02:51:19;;;;;;;3.00;0.95;;;18.90;82.20;;;;;;5053751;28;20036;-62
2022/07/29 02:53:48;;;;;;;2.10;1.33;;;18.90;82.20;;;;;;5052840;28;20059;-62
2022/07/29 02:56:18;;;;;;;7.13;1.40;;;18.90;82.40;;;;;;5053906;28;20064;-62
2022/07/29 02:58:53;;;;;;;2.45;1.30;;;18.90;82.50;;;;;;5042446;28;20121;-62
2022/07/29 03:01:23;;;;;;;3.60;1.10;;;18.90;82.50;;;;;;5054025;28;20354;-63
2022/07/29 03:03:51;;;;;;;6.07;1.40;;;18.80;82.50;;;;;;5064697;28;20645;-62
2022/07/29 03:06:23;;;;;;;1.85;1.25;;;18.90;82.60;;;;;;5056061;28;20025;-62
2022/07/29 03:08:49;;;;;;;7.82;1.42;;;18.80;82.70;;;;;;5052914;28;20118;-62
2022/07/29 03:11:16;;;;;;;2.67;1.73;;;18.80;82.70;;;;;;5052575;28;20116;-62
2022/07/29 03:13:42;;;;;;;5.38;1.55;;;18.80;82.70;;;;;;5052212;28;20476;-62
2022/07/29 03:16:09;;;;;;;5.68;1.30;;;18.80;82.70;;;;;;5050024;28;20100;-62
2022/07/29 03:18:36;;;;;;;2.17;1.20;;;18.80;83.40;;;;;;5054419;28;20032;-62
2022/07/29 03:21:03;;;;;;;1.35;1.08;;;18.80;82.90;;;;;;5054119;28;20533;-62
2022/07/29 03:23:29;;;;;;;3.58;1.55;;;18.80;82.90;;;;;;5054609;28;20029;-62
2022/07/29 03:25:55;;;;;;;4.38;1.70;;;18.70;82.90;;;;;;5050180;28;20430;-62
2022/07/29 03:28:21;;;;;;;6.70;1.55;;;18.80;82.80;;;;;;5053665;28;20025;-62
2022/07/29 03:30:47;;;;;;;6.10;1.70;;;18.70;82.80;;;;;;5052587;28;20147;-62
2022/07/29 03:33:13;;;;;;;1.95;1.30;;;18.70;82.80;;;;;;5052576;28;20060;-62
2022/07/29 03:35:39;;;;;;;5.95;1.40;;;18.70;82.90;;;;;;5053285;28;20506;-62
2022/07/29 03:38:05;;;;;;;6.82;1.35;;;18.80;82.90;;;;;;5053625;28;20068;-62
2022/07/29 03:40:51;;;;;;;4.55;1.20;;;18.70;83.00;;;;;;5052861;28;20428;-62
2022/07/29 03:43:18;;;;;;;8.20;1.70;;;18.80;83.10;;;;;;5053024;28;20063;-62
2022/07/29 03:45:48;;;;;;;5.05;1.40;;;18.70;83.00;;;;;;5051766;28;20029;-62
2022/07/29 03:48:17;;;;;;;3.13;1.27;;;18.70;83.10;;;;;;5051687;28;20499;-62
2022/07/29 03:50:44;;;;;;;4.30;2.28;;;18.60;83.10;;;;;;5052693;28;20068;-62
2022/07/29 03:53:09;;;;;;;4.28;1.30;;;18.70;83.20;;;;;;5051387;28;20037;-62
2022/07/29 03:55:44;;;;;;;1.80;1.23;;;18.70;83.20;;;;;;5052926;28;20086;-62
2022/07/29 03:58:12;;;;;;;5.90;1.70;;;18.60;83.20;;;;;;5053059;28;20029;-62
2022/07/29 04:00:38;;;;;;;4.05;1.38;;;18.60;83.30;;;;;;5052039;28;20127;-62
2022/07/29 04:03:04;;;;;;;4.35;1.58;;;18.60;83.30;;;;;;5051974;28;20079;-62
2022/07/29 04:05:30;;;;;;;4.28;1.40;;;18.60;83.30;;;;;;5051456;28;20143;-62
2022/07/29 04:07:56;;;;;;;3.15;1.42;;;18.60;83.30;;;;;;5052852;28;20524;-62
2022/07/29 04:10:22;;;;;;;3.97;1.52;;;18.60;83.30;;;;;;5052230;28;20060;-62
2022/07/29 04:12:49;;;;;;;4.57;1.50;;;18.60;83.30;;;;;;5053892;28;20028;-62
2022/07/29 04:15:14;;;;;;;6.50;1.90;;;18.60;83.30;;;;;;5052341;28;20033;-62
2022/07/29 04:17:40;;;;;;;3.55;1.48;;;18.60;83.40;;;;;;5053222;28;20025;-62
2022/07/29 04:20:06;;;;;;;3.90;1.40;;;18.60;83.50;;;;;;5052140;28;20436;-62
2022/07/29 04:22:32;;;;;;;5.00;1.70;;;18.60;83.70;;;;;;5051688;28;20036;-62
2022/07/29 04:24:58;;;;;;;4.38;1.42;;;18.60;83.90;;;;;;5052626;28;20029;-62
2022/07/29 04:27:23;;;;;;;2.00;1.15;;;18.50;83.90;;;;;;5050947;28;20033;-62
2022/07/29 04:29:49;;;;;;;3.00;1.38;;;18.50;84.00;;;;;;5052617;28;20068;-62
2022/07/29 04:32:15;;;;;;;3.80;1.58;;;18.50;84.00;;;;;;5051313;28;20048;-62
2022/07/29 04:34:40;;;;;;;3.05;1.35;;;18.50;84.70;;;;;;5051629;28;20059;-62
2022/07/29 04:37:06;;;;;;;3.78;1.50;;;18.50;84.00;;;;;;5050725;28;20052;-62
2022/07/29 04:39:32;;;;;;;8.65;2.05;;;18.50;84.10;;;;;;5052160;28;20041;-62
2022/07/29 04:41:57;;;;;;;4.45;1.50;;;18.60;84.10;;;;;;5055637;28;20499;-62
2022/07/29 04:44:23;;;;;;;5.35;2.40;;;18.50;84.00;;;;;;5052376;28;20485;-62
2022/07/29 04:46:49;;;;;;;3.88;1.38;;;18.50;84.00;;;;;;5051569;28;20120;-62
2022/07/29 04:49:14;;;;;;;3.80;1.30;;;18.60;84.00;;;;;;5042723;28;20037;-62
2022/07/29 04:51:40;;;;;;;6.68;1.75;;;18.50;84.00;;;;;;5049408;28;20028;-62
2022/07/29 04:54:06;;;;;;;6.50;1.67;;;18.50;84.00;;;;;;5051580;28;20509;-62
2022/07/29 04:56:31;;;;;;;4.60;1.40;;;18.50;83.90;;;;;;5050839;28;20064;-62
2022/07/29 04:58:57;;;;;;;4.53;1.50;;;18.50;83.90;;;;;;5052244;28;20029;-62
2022/07/29 05:01:23;;;;;;;7.35;1.50;;;18.50;83.90;;;;;;5051050;28;20029;-62
2022/07/29 05:03:48;;;;;;;5.55;1.75;;;18.50;83.90;;;;;;5051166;28;20469;-62
2022/07/29 05:06:14;;;;;;;7.03;1.70;;;18.60;83.90;;;;;;5055344;28;20021;-62
2022/07/29 05:08:40;;;;;;;2.15;1.20;;;18.60;83.90;;;;;;5059668;28;20029;-62
2022/07/29 05:11:06;;;;;;;3.67;1.70;;;18.60;84.00;;;;;;5054984;28;20032;-62
2022/07/29 05:13:34;;;;;;;7.93;1.77;;;18.60;83.90;;;;;;5059884;28;20021;-62
2022/07/29 05:16:00;;;;;;;2.40;1.45;;;18.60;84.00;;;;;;5050452;28;20480;-62
2022/07/29 05:18:26;;;;;;;3.70;1.33;;;18.60;83.80;;;;;;5062443;28;20468;-62
2022/07/29 05:20:52;;;;;;;5.90;1.50;;;18.60;83.80;;;;;;5052691;28;20090;-62
2022/07/29 05:23:17;;;;;;;3.63;1.42;;;18.60;83.70;;;;;;5051126;28;20029;-62
2022/07/29 05:25:43;;;;;;;5.90;1.52;;;18.60;83.70;;;;;;5065497;28;20036;-62
2022/07/29 05:28:09;;;;;;;3.85;1.80;;;18.60;83.60;;;;;;5068975;28;20025;-62
2022/07/29 05:30:35;;;;;;;6.53;1.20;;;18.60;83.50;;;;;;5051686;28;20481;-62
2022/07/29 05:33:01;;;;;;;7.65;1.60;;;18.60;83.50;;;;;;5051258;28;20025;-62
2022/07/29 05:35:26;;;;;;;6.15;1.20;;;18.70;83.50;;;;;;5050771;28;20041;-62
2022/07/29 05:37:52;;;;;;;5.15;1.58;;;18.60;83.40;;;;;;5050591;28;20036;-62
2022/07/29 05:40:17;;;;;;;7.90;1.52;;;18.60;83.40;;;;;;5051009;28;20037;-62
2022/07/29 05:42:43;;;;;;;3.72;1.33;;;18.60;83.50;;;;;;5051872;28;20462;-62
2022/07/29 05:45:09;;;;;;;3.17;1.40;;;18.60;83.40;;;;;;5050385;28;20040;-62
2022/07/29 05:47:35;;;;;;;7.25;1.40;;;18.70;83.40;;;;;;5051717;28;20025;-62
2022/07/29 05:50:01;;;;;;;4.65;1.65;;;18.60;83.40;;;;;;5042646;28;20087;-62
2022/07/29 05:52:26;;;;;;;7.03;1.60;;;18.70;83.50;;;;;;5054817;28;20036;-62
2022/07/29 05:54:52;;;;;;;9.82;1.67;;;18.70;83.70;;;;;;5066949;28;20045;-62
2022/07/29 05:57:20;;;;;;;8.40;1.60;;;18.70;83.80;;;;;;5065794;28;20039;-62
2022/07/29 05:59:46;;;;;;;4.90;1.30;;;18.70;83.80;;;;;;5067753;28;20059;-62
2022/07/29 06:02:11;;;;;;;9.10;1.50;;;18.70;84.50;;;;;;5066012;28;20029;-62
2022/07/29 06:04:37;;;;;;;6.97;1.73;;;18.70;83.90;;;;;;5068101;28;20036;-62
2022/07/29 06:07:04;;;;;;;4.97;1.50;;;18.60;83.80;;;;;;5054161;28;20031;-62
2022/07/29 06:09:30;;;;;;;3.67;1.48;;;18.70;83.90;;;;;;5058134;28;20032;-62
2022/07/29 06:11:57;;;;;;;5.10;1.85;;;18.70;83.90;;;;;;5062360;28;20032;-62
2022/07/29 06:14:23;;;;;;;3.67;1.50;;;18.70;83.90;;;;;;5054183;28;20037;-62
2022/07/29 06:16:49;;;;;;;2.55;1.77;;;18.70;83.60;;;;;;5065502;28;20474;-62
2022/07/29 06:19:15;;;;;;;6.20;2.38;;;18.70;83.70;;;;;;5052984;28;20068;-62
2022/07/29 06:21:43;;;;;;;5.18;1.42;;;18.80;83.60;;;;;;5054598;28;20087;-62
2022/07/29 06:24:10;;;;;;;6.00;1.80;;;18.80;83.30;;;;;;5050664;28;20469;-62
2022/07/29 06:26:36;;;;;;;3.92;1.40;;;18.80;83.10;;;;;;5054148;28;20453;-62
2022/07/29 06:29:02;;;;;;;3.63;1.50;;;18.90;83.20;;;;;;5052481;28;20115;-62
2022/07/29 06:31:27;;;;;;;7.35;1.45;;;18.80;83.00;;;;;;5051492;28;20043;-62
2022/07/29 06:33:53;;;;;;;4.70;1.65;;;18.90;83.00;;;;;;5051770;28;20034;-62
2022/07/29 06:36:19;;;;;;;3.95;1.77;;;18.90;82.90;;;;;;5052169;28;20025;-62
2022/07/29 06:38:44;;;;;;;4.15;1.60;;;19.00;82.80;;;;;;5053229;28;20021;-62
2022/07/29 06:41:12;;;;;;;9.05;1.60;;;19.00;82.60;;;;;;5063160;28;20074;-62
2022/07/29 06:43:43;;;;;;;4.65;1.60;;;19.00;82.50;;;;;;5051558;28;20041;-62
2022/07/29 06:46:17;;;;;;;3.10;1.35;;;19.00;82.20;;;;;;5053108;28;20033;-63
2022/07/29 06:48:43;;;;;;;7.28;1.52;;;19.10;82.10;;;;;;5051184;28;20437;-62
2022/07/29 06:51:09;;;;;;;4.78;1.70;;;19.10;81.90;;;;;;5050409;28;20094;-62
2022/07/29 06:53:36;;;;;;;5.07;1.60;;;19.20;81.80;;;;;;5050917;28;20044;-63
2022/07/29 06:56:05;;;;;;;6.07;1.50;;;19.20;81.60;;;;;;5049757;28;20036;-63
2022/07/29 06:58:31;;;;;;;3.75;1.70;;;19.20;81.80;;;;;;5051228;28;20048;-63
2022/07/29 07:00:58;;;;;;;7.45;1.50;;;19.20;81.90;;;;;;5050153;28;20040;-63
2022/07/29 07:03:24;;;;;;;5.78;1.70;;;19.30;81.80;;;;;;5052028;28;20040;-62
2022/07/29 07:05:51;;;;;;;6.55;1.45;;;19.30;81.80;;;;;;5050193;28;20036;-63
2022/07/29 07:08:17;;;;;;;3.65;1.58;;;19.30;81.90;;;;;;5053814;28;20029;-63
2022/07/29 07:10:43;;;;;;;5.28;1.50;;;19.40;81.80;;;;;;5053203;28;20036;-63
2022/07/29 07:13:09;;;;;;;5.15;1.60;;;19.40;81.80;;;;;;5051197;28;20021;-62
2022/07/29 07:15:36;;;;;;;4.18;2.08;;;19.50;81.70;;;;;;5050350;28;20043;-62
2022/07/29 07:18:02;;;;;;;8.05;1.70;;;19.50;81.20;;;;;;5051714;28;20404;-62
2022/07/29 07:20:27;;;;;;;8.73;2.05;;;19.60;81.00;;;;;;5050874;28;20045;-62
2022/07/29 07:22:53;;;;;;;3.55;1.30;;;19.60;81.00;;;;;;5050007;28;20039;-62
2022/07/29 07:25:19;;;;;;;4.22;1.60;;;19.70;80.70;;;;;;5049159;28;20033;-62
2022/07/29 07:27:45;;;;;;;5.20;1.48;;;19.70;81.10;;;;;;5049799;28;20090;-62
2022/07/29 07:30:11;;;;;;;6.53;1.73;;;19.70;81.10;;;;;;5049389;28;20036;-62
2022/07/29 07:32:37;;;;;;;4.75;1.40;;;19.70;81.10;;;;;;5052779;28;20453;-62
2022/07/29 07:35:05;;;;;;;1.90;1.42;;;19.80;81.20;;;;;;5051484;28;20029;-62
2022/07/29 07:37:31;;;;;;;7.10;1.70;;;19.80;80.90;;;;;;5048989;28;20427;-62
2022/07/29 07:39:57;;;;;;;4.20;1.80;;;19.80;80.80;;;;;;5045579;28;20127;-62
2022/07/29 07:42:23;;;;;;;4.20;1.80;;;19.90;80.50;;;;;;5047806;28;20036;-62
2022/07/29 07:44:49;;;;;;;5.00;1.60;;;19.90;80.50;;;;;;5046278;28;20476;-62
2022/07/29 07:47:19;;;;;;;6.70;1.85;;;20.00;80.40;;;;;;5048784;28;20025;-62
2022/07/29 07:49:46;;;;;;;4.72;1.70;;;20.00;80.30;;;;;;5046406;28;20033;-62
2022/07/29 07:52:12;;;;;;;5.70;1.73;;;20.00;80.30;;;;;;5046897;28;20123;-62
2022/07/29 07:54:38;;;;;;;7.32;1.75;;;20.10;80.30;;;;;;5046690;28;20069;-62
2022/07/29 07:57:04;;;;;;;5.25;1.80;;;20.10;80.00;;;;;;5047825;28;20154;-62
2022/07/29 07:59:30;;;;;;;6.85;2.00;;;20.10;79.80;;;;;;5047611;28;20094;-62
2022/07/29 08:01:55;;;;;;;3.90;1.80;;;20.20;79.60;;;;;;5047662;28;20024;-62
2022/07/29 08:04:21;;;;;;;8.60;1.92;;;20.20;79.80;;;;;;5048627;28;20784;-62
2022/07/29 08:06:49;;;;;;;4.55;1.77;;;20.20;79.80;;;;;;5047584;28;20029;-62
2022/07/29 08:09:15;;;;;;;4.38;1.70;;;20.30;79.90;;;;;;5040987;28;20116;-62
2022/07/29 08:11:41;;;;;;;6.45;1.77;;;20.30;79.80;;;;;;5048588;28;20104;-62
2022/07/29 08:14:06;;;;;;;8.25;1.60;;;20.40;79.80;;;;;;5049497;28;20028;-62
2022/07/29 08:16:32;;;;;;;6.90;1.98;;;20.40;79.70;;;;;;5047462;28;20028;-62
2022/07/29 08:18:58;;;;;;;4.25;2.03;;;20.40;79.50;;;;;;5048474;28;20741;-62
2022/07/29 08:21:24;;;;;;;5.30;1.58;;;20.50;79.50;;;;;;5047503;28;20064;-62
2022/07/29 08:23:52;;;;;;;7.28;1.77;;;20.50;79.50;;;;;;5048906;28;20417;-62
2022/07/29 08:26:22;;;;;;;8.50;1.83;;;20.60;79.20;;;;;;5050114;28;20040;-62
2022/07/29 08:28:50;;;;;;;10.30;1.77;;;20.60;78.90;;;;;;5045685;28;20112;-62
2022/07/29 08:31:16;;;;;;;4.10;1.73;;;20.60;78.60;;;;;;5053196;28;20103;-62
2022/07/29 08:33:43;;;;;;;3.67;1.77;;;20.70;78.60;;;;;;5049097;28;20094;-62
2022/07/29 08:36:09;;;;;;;3.40;1.52;;;20.70;78.40;;;;;;5049380;28;20025;-62
2022/07/29 08:38:35;;;;;;;4.65;1.83;;;20.70;78.20;;;;;;5049434;28;20047;-62
2022/07/29 08:41:01;;;;;;;3.40;1.42;;;20.70;78.10;;;;;;5048447;28;20037;-62
2022/07/29 08:43:28;;;;;;;5.72;1.80;;;20.70;78.40;;;;;;5049002;28;20033;-62
2022/07/29 08:45:54;;;;;;;6.80;1.73;;;20.80;77.70;;;;;;5049494;28;20365;-63
2022/07/29 08:48:25;;;;;;;7.68;1.70;;;20.80;78.30;;;;;;5048761;28;20112;-62
2022/07/29 08:50:56;;;;;;;5.68;1.73;;;20.90;78.60;;;;;;5052789;28;20028;-62
2022/07/29 08:53:24;;;;;;;8.32;2.22;;;20.90;78.50;;;;;;5051358;28;20040;-62
2022/07/29 08:55:50;;;;;;;5.78;2.03;;;20.90;77.90;;;;;;5047033;28;20056;-62
2022/07/29 08:58:17;;;;;;;6.65;1.50;;;20.90;77.60;;;;;;5048890;28;20086;-63
2022/07/29 09:00:50;;;;;;;5.50;1.75;;;21.00;77.80;;;;;;5048631;28;20063;-63
2022/07/29 09:03:19;;;;;;;4.38;1.67;;;21.10;77.70;;;;;;5049589;28;20037;-62
2022/07/29 09:05:49;;;;;;;5.85;2.03;;;21.10;77.70;;;;;;5048869;28;20033;-62
2022/07/29 09:08:19;;;;;;;4.20;1.67;;;21.10;77.30;;;;;;5045898;28;20041;-62
2022/07/29 09:10:45;;;;;;;6.30;1.73;;;21.20;77.40;;;;;;5048013;28;20401;-62
2022/07/29 09:13:11;;;;;;;5.47;1.70;;;21.20;77.40;;;;;;5045343;28;20052;-62
2022/07/29 09:15:37;;;;;;;6.90;2.05;;;21.30;77.00;;;;;;5046352;28;20078;-62
2022/07/29 09:18:02;;;;;;;12.95;2.40;;;21.30;76.40;;;;;;5041625;28;20564;-62
2022/07/29 09:23:21;;;;;;;4.85;1.80;;;21.40;75.80;;;;;;5021721;28;20036;-62
2022/07/29 09:25:47;;;;;;;3.75;1.73;;;21.40;75.70;;;;;;5045933;28;20036;-63
2022/07/29 09:28:18;;;;;;;6.50;2.20;;;21.50;75.60;;;;;;5048220;28;20037;-63
2022/07/29 09:30:55;;;;;;;5.60;1.90;;;21.50;75.80;;;;;;5047427;28;20485;-62
2022/07/29 09:33:22;;;;;;;9.00;1.88;;;21.60;75.50;;;;;;5049664;28;20385;-64
2022/07/29 09:36:04;;;;;;;10.52;2.00;;;21.60;75.20;;;;;;5052371;28;20033;-63
2022/07/29 09:38:30;;;;;;;4.38;2.00;;;21.60;75.20;;;;;;5052135;28;20035;-64
2022/07/29 09:40:57;;;;;;;9.90;1.88;;;21.60;74.80;;;;;;5051291;28;20084;-63
2022/07/29 09:43:23;;;;;;;3.65;1.90;;;21.60;75.00;;;;;;5052797;28;20031;-63
2022/07/29 09:45:49;;;;;;;7.32;2.40;;;21.70;75.40;;;;;;5052414;28;20040;-63
2022/07/29 09:48:20;;;;;;;7.07;2.00;;;21.70;75.30;;;;;;5047795;28;20032;-63
2022/07/29 09:50:49;;;;;;;5.70;2.50;;;21.70;75.20;;;;;;5050891;28;20037;-62
2022/07/29 09:53:37;;;;;;;8.65;2.00;;;21.80;75.00;;;;;;5050493;28;20041;-62
2022/07/29 09:56:03;;;;;;;22.38;2.35;;;21.80;75.00;;;;;;5051060;28;20039;-65
2022/07/29 09:58:29;;;;;;;5.85;1.70;;;21.80;75.40;;;;;;5051319;28;20086;-63
2022/07/29 10:00:56;;;;;;;4.82;2.17;;;21.90;75.40;;;;;;5052660;28;20079;-63
2022/07/29 10:03:22;;;;;;;7.75;1.77;;;21.80;75.30;;;;;;5052978;28;20445;-63
2022/07/29 10:06:11;;;;;;;8.98;2.10;;;21.90;75.20;;;;;;5051751;28;20032;-66
2022/07/29 10:08:37;;;;;;;6.40;2.50;;;21.90;75.60;;;;;;5052740;28;20099;-63
2022/07/29 10:11:10;;;;;;;9.27;2.30;;;21.90;75.10;;;;;;5052624;28;20060;-62
2022/07/29 10:13:36;;;;;;;5.78;2.17;;;22.00;75.40;;;;;;5053319;28;20388;-63
2022/07/29 10:16:02;;;;;;;5.85;2.30;;;22.00;75.60;;;;;;5053096;28;20033;-63
2022/07/29 10:18:29;;;;;;;9.02;2.80;;;22.10;75.80;;;;;;5053804;28;20032;-63
2022/07/29 10:20:55;;;;;;;8.40;2.10;;;22.10;75.60;;;;;;5053280;28;20037;-63
2022/07/29 10:23:21;;;;;;;5.57;2.22;;;22.10;75.60;;;;;;5052597;28;20033;-62
2022/07/29 10:25:47;;;;;;;7.20;2.20;;;22.10;75.40;;;;;;5052902;28;20111;-63
2022/07/29 10:28:13;;;;;;;5.72;2.05;;;22.10;75.60;;;;;;5065575;28;20040;-63
2022/07/29 10:30:40;;;;;;;7.22;1.98;;;22.20;75.30;;;;;;5056020;28;20116;-63
2022/07/29 10:33:21;;;;;;;5.30;1.90;;;22.20;75.30;;;;;;5060800;28;20021;-63
2022/07/29 10:36:14;;;;;;;7.40;2.15;;;22.30;75.10;;;;;;5051282;28;20033;-63
2022/07/29 10:38:43;;;;;;;6.35;1.75;;;22.30;75.80;;;;;;5055985;28;20021;-63
2022/07/29 10:41:26;;;;;;;6.53;1.98;;;22.30;76.10;;;;;;5053100;28;20136;-63
2022/07/29 10:44:05;;;;;;;7.78;2.17;;;22.30;75.80;;;;;;5054637;28;20047;-63
2022/07/29 10:46:39;;;;;;;8.05;2.10;;;22.40;75.90;;;;;;5052477;28;20037;-63
2022/07/29 10:49:06;;;;;;;10.32;2.58;;;22.40;75.70;;;;;;5051150;28;20033;-63
2022/07/29 10:51:50;;;;;;;9.55;1.90;;;22.50;75.80;;;;;;5055148;28;20103;-64
2022/07/29 10:54:35;;;;;;;6.97;2.10;;;22.50;76.10;;;;;;5052021;28;20060;-64
2022/07/29 10:57:21;;;;;;;4.72;1.67;;;22.50;76.00;;;;;;5049583;28;20044;-64
2022/07/29 11:00:00;;;;;;;4.60;1.92;;;22.50;75.70;;;;;;5051281;28;20037;-61
2022/07/29 11:02:32;;;;;;;7.22;2.30;;;22.50;75.60;;;;;;5049771;28;20040;-62
2022/07/29 11:04:58;;;;;;;11.38;2.25;;;22.60;76.20;;;;;;5049243;28;20052;-61
2022/07/29 11:07:25;;;;;;;5.45;1.98;;;22.60;75.80;;;;;;5052290;28;20420;-61
2022/07/29 11:10:09;;;;;;;6.70;2.30;;;22.60;75.80;;;;;;5053914;28;20033;-61
2022/07/29 11:12:38;;;;;;;10.95;2.40;;;22.60;75.90;;;;;;5049036;28;20108;-61
2022/07/29 11:15:05;;;;;;;7.95;2.30;;;22.70;76.10;;;;;;5050262;28;20108;-61
2022/07/29 11:17:51;;;;;;;5.25;2.08;;;22.70;76.00;;;;;;5048349;28;20032;-61
2022/07/29 11:20:37;;;;;;;21.38;2.40;;;22.70;76.00;;;;;;5041507;28;20098;-61
2022/07/29 11:23:35;;;;;;;8.75;2.30;;;22.80;75.70;;;;;;5047615;28;20094;-60
2022/07/29 11:26:20;;;;;;;7.20;2.60;;;22.80;75.20;;;;;;5048103;28;20048;-60
2022/07/29 11:28:54;;;;;;;7.20;2.47;;;22.80;75.10;;;;;;5047965;28;20057;-63
2022/07/29 11:31:34;;;;;;;6.75;2.40;;;22.90;75.00;;;;;;5049126;28;20056;-63
2022/07/29 11:34:19;;;;;;;9.80;2.10;;;22.90;75.20;;;;;;5047942;28;20021;-63
2022/07/29 11:37:09;;;;;;;5.65;1.90;;;22.90;75.80;;;;;;5048517;28;20057;-63
2022/07/29 11:39:47;;;;;;;5.70;2.38;;;22.90;75.90;;;;;;5048688;28;20037;-62
2022/07/29 11:42:35;;;;;;;9.57;2.30;;;22.90;76.00;;;;;;5050180;28;20029;-63
2022/07/29 11:45:05;;;;;;;5.72;2.17;;;23.00;76.10;;;;;;5048081;28;20062;-63
2022/07/29 11:47:52;;;;;;;5.50;2.38;;;23.00;76.00;;;;;;5047326;28;20384;-63
2022/07/29 11:50:35;;;;;;;8.77;2.08;;;23.10;75.90;;;;;;5047775;28;20095;-62
2022/07/29 11:53:14;;;;;;;11.07;2.10;;;23.10;75.90;;;;;;5047569;28;20029;-63
2022/07/29 11:55:41;;;;;;;5.47;2.05;;;23.10;75.80;;;;;;5047955;28;20033;-63
2022/07/29 11:58:07;;;;;;;9.80;2.33;;;23.10;74.70;;;;;;5046964;28;20078;-63
2022/07/29 12:00:40;;;;;;;6.78;2.30;;;23.20;74.40;;;;;;5047364;28;20216;-63
2022/07/29 12:03:22;;;;;;;10.57;2.42;;;23.20;74.20;;;;;;5047279;28;20020;-63
2022/07/29 12:05:48;;;;;;;9.10;2.20;;;23.30;74.20;;;;;;5048066;28;20033;-63
2022/07/29 12:08:19;;;;;;;5.80;1.77;;;23.30;74.40;;;;;;5047823;28;20044;-63
2022/07/29 12:10:46;;;;;;;4.38;1.77;;;23.40;73.70;;;;;;5047245;28;20464;-63
2022/07/29 12:13:12;;;;;;;6.85;2.22;;;23.40;73.60;;;;;;5048093;28;20074;-63
2022/07/29 12:15:39;;;;;;;8.48;2.40;;;23.40;74.20;;;;;;5048319;28;20029;-63
2022/07/29 12:18:17;;;;;;;8.68;1.98;;;23.50;73.70;;;;;;5048238;28;20091;-64
2022/07/29 12:20:44;;;;;;;6.97;2.03;;;23.60;73.50;;;;;;5049114;28;20041;-63
2022/07/29 12:23:13;;;;;;;9.32;2.00;;;23.70;73.50;;;;;;5048685;28;20021;-63
2022/07/29 12:25:41;;;;;;;7.07;2.17;;;23.70;73.00;;;;;;5047457;28;20102;-63
2022/07/29 12:28:12;;;;;;;10.00;2.20;;;23.90;73.60;;;;;;5047872;28;20489;-63
2022/07/29 12:30:44;;;;;;;9.48;2.20;;;23.90;72.70;;;;;;5049493;28;20362;-63
2022/07/29 12:33:17;;;;;;;17.83;2.30;;;24.00;72.70;;;;;;5047590;28;20039;-63
2022/07/29 12:35:45;;;;;;;12.20;2.13;;;24.10;72.60;;;;;;5047792;28;20170;-63
2022/07/29 12:38:12;;;;;;;5.45;2.13;;;24.10;72.30;;;;;;5047763;28;20032;-63
2022/07/29 12:40:38;;;;;;;23.45;2.35;;;24.20;72.70;;;;;;5049634;28;20392;-63
2022/07/29 12:43:12;;;;;;;11.23;1.95;;;24.30;72.50;;;;;;5050347;28;20029;-64
2022/07/29 12:45:39;;;;;;;4.78;2.13;;;24.30;73.00;;;;;;5048432;28;20037;-63
2022/07/29 12:48:08;;;;;;;6.78;2.05;;;24.40;73.00;;;;;;5048658;28;20021;-66
2022/07/29 12:50:35;;;;;;;10.15;2.20;;;24.50;72.90;;;;;;5047896;28;20025;-64
2022/07/29 12:53:13;;;;;;;8.85;2.63;;;24.50;72.30;;;;;;5047673;28;20155;-65
2022/07/29 12:55:51;;;;;;;5.80;2.22;;;24.60;72.50;;;;;;5048086;28;20074;-65
2022/07/29 12:58:38;;;;;;;6.38;2.08;;;24.60;72.00;;;;;;5046519;28;20033;-65
2022/07/29 13:01:06;;;;;;;13.43;2.20;;;24.70;72.00;;;;;;5047238;28;20124;-64
2022/07/29 13:04:03;;;;;;;4.30;2.00;;;24.70;71.30;;;;;;5049174;28;20078;-65